sensor_id;sensor_type;location;lat;lon;timestamp;P1;durP1;ratioP1;P2;durP2;ratioP2
85342;SDS011;75760;31.390;34.904;2024-02-04T00:00:15;26.73;;;11.57;;
85342;SDS011;75760;31.390;34.904;2024-02-04T00:02:42;28.00;;;13.05;;
85342;SDS011;75760;31.390;34.904;2024-02-04T00:05:08;42.42;;;16.80;;
85342;SDS011;75760;31.390;34.904;2024-02-04T00:07:33;24.80;;;10.13;;
85342;SDS011;75760;31.390;34.904;2024-02-04T00:09:59;24.70;;;11.83;;
85342;SDS011;75760;31.390;34.904;2024-02-04T00:12:24;24.23;;;11.75;;
85342;SDS011;75760;31.390;34.904;2024-02-04T00:14:50;28.10;;;13.77;;
85342;SDS011;75760;31.390;34.904;2024-02-04T00:17:16;23.90;;;12.90;;
85342;SDS011;75760;31.390;34.904;2024-02-04T00:19:42;21.98;;;12.00;;
85342;SDS011;75760;31.390;34.904;2024-02-04T00:22:08;40.53;;;18.17;;
85342;SDS011;75760;31.390;34.904;2024-02-04T00:24:33;29.52;;;15.23;;
85342;SDS011;75760;31.390;34.904;2024-02-04T00:26:59;29.70;;;14.17;;
85342;SDS011;75760;31.390;34.904;2024-02-04T00:29:24;26.73;;;12.30;;
85342;SDS011;75760;31.390;34.904;2024-02-04T00:31:50;25.20;;;11.40;;
85342;SDS011;75760;31.390;34.904;2024-02-04T00:34:15;22.37;;;12.10;;
85342;SDS011;75760;31.390;34.904;2024-02-04T00:36:41;31.67;;;14.90;;
85342;SDS011;75760;31.390;34.904;2024-02-04T00:39:07;34.47;;;16.40;;
85342;SDS011;75760;31.390;34.904;2024-02-04T00:41:34;36.70;;;17.75;;
85342;SDS011;75760;31.390;34.904;2024-02-04T00:44:00;27.98;;;14.80;;
85342;SDS011;75760;31.390;34.904;2024-02-04T00:46:26;23.88;;;11.75;;
85342;SDS011;75760;31.390;34.904;2024-02-04T00:48:51;19.70;;;9.47;;
85342;SDS011;75760;31.390;34.904;2024-02-04T00:51:17;17.90;;;10.15;;
85342;SDS011;75760;31.390;34.904;2024-02-04T00:53:44;15.70;;;9.13;;
85342;SDS011;75760;31.390;34.904;2024-02-04T00:56:11;19.13;;;9.63;;
85342;SDS011;75760;31.390;34.904;2024-02-04T00:58:37;19.15;;;10.02;;
85342;SDS011;75760;31.390;34.904;2024-02-04T01:01:03;19.55;;;10.25;;
85342;SDS011;75760;31.390;34.904;2024-02-04T01:03:30;17.83;;;8.65;;
85342;SDS011;75760;31.390;34.904;2024-02-04T01:05:56;19.42;;;9.95;;
85342;SDS011;75760;31.390;34.904;2024-02-04T01:08:22;19.87;;;10.03;;
85342;SDS011;75760;31.390;34.904;2024-02-04T01:10:47;19.63;;;10.13;;
85342;SDS011;75760;31.390;34.904;2024-02-04T01:13:16;18.45;;;8.88;;
85342;SDS011;75760;31.390;34.904;2024-02-04T01:15:41;18.67;;;9.40;;
85342;SDS011;75760;31.390;34.904;2024-02-04T01:18:07;15.70;;;9.32;;
85342;SDS011;75760;31.390;34.904;2024-02-04T01:20:33;13.83;;;8.73;;
85342;SDS011;75760;31.390;34.904;2024-02-04T01:22:58;15.82;;;9.00;;
85342;SDS011;75760;31.390;34.904;2024-02-04T01:25:24;18.67;;;9.03;;
85342;SDS011;75760;31.390;34.904;2024-02-04T01:27:49;16.10;;;8.33;;
85342;SDS011;75760;31.390;34.904;2024-02-04T01:30:15;14.65;;;8.85;;
85342;SDS011;75760;31.390;34.904;2024-02-04T01:32:41;14.37;;;8.33;;
85342;SDS011;75760;31.390;34.904;2024-02-04T01:35:06;16.00;;;9.27;;
85342;SDS011;75760;31.390;34.904;2024-02-04T01:37:32;15.60;;;8.60;;
85342;SDS011;75760;31.390;34.904;2024-02-04T01:39:58;17.50;;;8.60;;
85342;SDS011;75760;31.390;34.904;2024-02-04T01:42:23;16.17;;;8.03;;
85342;SDS011;75760;31.390;34.904;2024-02-04T01:44:49;17.17;;;9.27;;
85342;SDS011;75760;31.390;34.904;2024-02-04T01:47:15;15.95;;;8.15;;
85342;SDS011;75760;31.390;34.904;2024-02-04T01:49:40;15.93;;;8.77;;
85342;SDS011;75760;31.390;34.904;2024-02-04T01:52:08;16.92;;;8.35;;
85342;SDS011;75760;31.390;34.904;2024-02-04T01:54:35;15.98;;;7.90;;
85342;SDS011;75760;31.390;34.904;2024-02-04T01:57:05;16.52;;;8.05;;
85342;SDS011;75760;31.390;34.904;2024-02-04T01:59:31;14.43;;;8.33;;
85342;SDS011;75760;31.390;34.904;2024-02-04T02:02:00;15.20;;;7.82;;
85342;SDS011;75760;31.390;34.904;2024-02-04T02:04:26;16.50;;;7.43;;
85342;SDS011;75760;31.390;34.904;2024-02-04T02:06:55;13.83;;;7.30;;
85342;SDS011;75760;31.390;34.904;2024-02-04T02:09:21;15.27;;;7.57;;
85342;SDS011;75760;31.390;34.904;2024-02-04T02:11:49;12.95;;;7.47;;
85342;SDS011;75760;31.390;34.904;2024-02-04T02:14:23;13.98;;;7.68;;
85342;SDS011;75760;31.390;34.904;2024-02-04T02:16:56;12.75;;;7.25;;
85342;SDS011;75760;31.390;34.904;2024-02-04T02:22:23;15.20;;;7.07;;
85342;SDS011;75760;31.390;34.904;2024-02-04T02:24:53;13.63;;;6.88;;
85342;SDS011;75760;31.390;34.904;2024-02-04T02:27:22;16.80;;;7.38;;
85342;SDS011;75760;31.390;34.904;2024-02-04T02:29:47;14.85;;;7.65;;
85342;SDS011;75760;31.390;34.904;2024-02-04T02:32:13;13.57;;;7.10;;
85342;SDS011;75760;31.390;34.904;2024-02-04T02:34:39;14.02;;;7.82;;
85342;SDS011;75760;31.390;34.904;2024-02-04T02:42:31;16.42;;;7.30;;
85342;SDS011;75760;31.390;34.904;2024-02-04T02:44:58;17.05;;;6.85;;
85342;SDS011;75760;31.390;34.904;2024-02-04T02:47:26;12.88;;;7.07;;
85342;SDS011;75760;31.390;34.904;2024-02-04T02:49:54;14.75;;;6.82;;
85342;SDS011;75760;31.390;34.904;2024-02-04T02:52:20;18.03;;;7.57;;
85342;SDS011;75760;31.390;34.904;2024-02-04T02:54:46;17.52;;;7.53;;
85342;SDS011;75760;31.390;34.904;2024-02-04T02:57:12;14.10;;;7.57;;
85342;SDS011;75760;31.390;34.904;2024-02-04T02:59:37;12.02;;;6.60;;
85342;SDS011;75760;31.390;34.904;2024-02-04T03:02:03;17.50;;;7.37;;
85342;SDS011;75760;31.390;34.904;2024-02-04T03:04:29;13.45;;;6.80;;
85342;SDS011;75760;31.390;34.904;2024-02-04T03:06:54;11.53;;;7.20;;
85342;SDS011;75760;31.390;34.904;2024-02-04T03:09:20;14.25;;;7.15;;
85342;SDS011;75760;31.390;34.904;2024-02-04T03:11:45;12.30;;;7.30;;
85342;SDS011;75760;31.390;34.904;2024-02-04T03:14:11;13.20;;;7.60;;
85342;SDS011;75760;31.390;34.904;2024-02-04T03:16:39;13.65;;;7.50;;
85342;SDS011;75760;31.390;34.904;2024-02-04T03:19:05;18.63;;;8.15;;
85342;SDS011;75760;31.390;34.904;2024-02-04T03:21:31;14.87;;;8.20;;
85342;SDS011;75760;31.390;34.904;2024-02-04T03:23:57;15.93;;;8.30;;
85342;SDS011;75760;31.390;34.904;2024-02-04T03:26:22;16.60;;;8.23;;
85342;SDS011;75760;31.390;34.904;2024-02-04T03:28:48;14.43;;;9.00;;
85342;SDS011;75760;31.390;34.904;2024-02-04T03:31:20;14.77;;;7.80;;
85342;SDS011;75760;31.390;34.904;2024-02-04T03:33:47;14.98;;;8.40;;
85342;SDS011;75760;31.390;34.904;2024-02-04T03:36:15;14.52;;;7.70;;
85342;SDS011;75760;31.390;34.904;2024-02-04T03:38:43;15.43;;;7.72;;
85342;SDS011;75760;31.390;34.904;2024-02-04T03:41:09;18.77;;;8.00;;
85342;SDS011;75760;31.390;34.904;2024-02-04T03:43:38;18.80;;;8.02;;
85342;SDS011;75760;31.390;34.904;2024-02-04T03:46:03;19.25;;;8.10;;
85342;SDS011;75760;31.390;34.904;2024-02-04T03:48:29;14.63;;;7.73;;
85342;SDS011;75760;31.390;34.904;2024-02-04T03:50:55;16.23;;;7.93;;
85342;SDS011;75760;31.390;34.904;2024-02-04T03:53:20;15.37;;;7.70;;
85342;SDS011;75760;31.390;34.904;2024-02-04T03:55:48;14.98;;;7.35;;
85342;SDS011;75760;31.390;34.904;2024-02-04T03:58:14;16.27;;;8.03;;
85342;SDS011;75760;31.390;34.904;2024-02-04T04:00:40;16.40;;;8.40;;
85342;SDS011;75760;31.390;34.904;2024-02-04T04:03:05;14.17;;;7.57;;
85342;SDS011;75760;31.390;34.904;2024-02-04T04:05:31;15.15;;;8.18;;
85342;SDS011;75760;31.390;34.904;2024-02-04T04:07:57;17.77;;;7.83;;
85342;SDS011;75760;31.390;34.904;2024-02-04T04:10:22;18.90;;;8.02;;
85342;SDS011;75760;31.390;34.904;2024-02-04T04:12:48;15.07;;;7.53;;
85342;SDS011;75760;31.390;34.904;2024-02-04T04:15:13;15.80;;;8.20;;
85342;SDS011;75760;31.390;34.904;2024-02-04T04:17:39;16.63;;;8.30;;
85342;SDS011;75760;31.390;34.904;2024-02-04T04:20:06;17.83;;;8.27;;
85342;SDS011;75760;31.390;34.904;2024-02-04T04:22:32;19.45;;;8.63;;
85342;SDS011;75760;31.390;34.904;2024-02-04T04:24:58;14.67;;;7.70;;
85342;SDS011;75760;31.390;34.904;2024-02-04T04:27:23;14.33;;;7.57;;
85342;SDS011;75760;31.390;34.904;2024-02-04T04:29:49;18.23;;;9.07;;
85342;SDS011;75760;31.390;34.904;2024-02-04T04:32:14;19.70;;;9.43;;
85342;SDS011;75760;31.390;34.904;2024-02-04T04:34:40;16.95;;;8.40;;
85342;SDS011;75760;31.390;34.904;2024-02-04T04:37:05;15.70;;;7.40;;
85342;SDS011;75760;31.390;34.904;2024-02-04T04:39:31;13.73;;;7.75;;
85342;SDS011;75760;31.390;34.904;2024-02-04T04:41:57;17.30;;;8.07;;
85342;SDS011;75760;31.390;34.904;2024-02-04T04:44:23;12.40;;;7.70;;
85342;SDS011;75760;31.390;34.904;2024-02-04T04:46:48;17.30;;;7.53;;
85342;SDS011;75760;31.390;34.904;2024-02-04T04:49:14;13.00;;;7.30;;
85342;SDS011;75760;31.390;34.904;2024-02-04T04:51:39;16.35;;;7.20;;
85342;SDS011;75760;31.390;34.904;2024-02-04T04:54:10;15.23;;;7.78;;
85342;SDS011;75760;31.390;34.904;2024-02-04T04:56:39;17.40;;;7.60;;
85342;SDS011;75760;31.390;34.904;2024-02-04T04:59:06;17.88;;;7.20;;
85342;SDS011;75760;31.390;34.904;2024-02-04T05:01:32;16.92;;;7.38;;
85342;SDS011;75760;31.390;34.904;2024-02-04T05:03:57;14.43;;;5.80;;
85342;SDS011;75760;31.390;34.904;2024-02-04T05:06:23;15.93;;;6.43;;
85342;SDS011;75760;31.390;34.904;2024-02-04T05:08:48;11.73;;;6.45;;
85342;SDS011;75760;31.390;34.904;2024-02-04T05:11:14;10.83;;;6.63;;
85342;SDS011;75760;31.390;34.904;2024-02-04T05:13:40;15.87;;;6.93;;
85342;SDS011;75760;31.390;34.904;2024-02-04T05:16:05;13.97;;;6.90;;
85342;SDS011;75760;31.390;34.904;2024-02-04T05:18:31;13.90;;;6.30;;
85342;SDS011;75760;31.390;34.904;2024-02-04T05:20:56;11.27;;;6.93;;
85342;SDS011;75760;31.390;34.904;2024-02-04T05:23:22;15.43;;;6.60;;
85342;SDS011;75760;31.390;34.904;2024-02-04T05:25:48;9.95;;;5.80;;
85342;SDS011;75760;31.390;34.904;2024-02-04T05:28:13;11.33;;;6.07;;
85342;SDS011;75760;31.390;34.904;2024-02-04T05:30:39;11.57;;;5.70;;
85342;SDS011;75760;31.390;34.904;2024-02-04T05:33:04;12.50;;;5.97;;
85342;SDS011;75760;31.390;34.904;2024-02-04T05:35:31;12.00;;;5.65;;
85342;SDS011;75760;31.390;34.904;2024-02-04T05:37:56;12.77;;;5.63;;
85342;SDS011;75760;31.390;34.904;2024-02-04T05:40:22;12.70;;;6.10;;
85342;SDS011;75760;31.390;34.904;2024-02-04T05:42:48;10.70;;;5.60;;
85342;SDS011;75760;31.390;34.904;2024-02-04T05:45:13;12.23;;;5.37;;
85342;SDS011;75760;31.390;34.904;2024-02-04T05:47:39;14.73;;;5.50;;
85342;SDS011;75760;31.390;34.904;2024-02-04T05:50:05;10.33;;;5.70;;
85342;SDS011;75760;31.390;34.904;2024-02-04T05:52:31;13.18;;;5.32;;
85342;SDS011;75760;31.390;34.904;2024-02-04T05:54:56;14.57;;;5.10;;
85342;SDS011;75760;31.390;34.904;2024-02-04T05:57:22;14.53;;;5.77;;
85342;SDS011;75760;31.390;34.904;2024-02-04T05:59:48;10.67;;;6.30;;
85342;SDS011;75760;31.390;34.904;2024-02-04T06:02:15;12.35;;;5.57;;
85342;SDS011;75760;31.390;34.904;2024-02-04T06:04:40;10.45;;;5.03;;
85342;SDS011;75760;31.390;34.904;2024-02-04T06:07:06;9.23;;;5.00;;
85342;SDS011;75760;31.390;34.904;2024-02-04T06:09:32;9.67;;;5.00;;
85342;SDS011;75760;31.390;34.904;2024-02-04T06:11:58;11.75;;;5.30;;
85342;SDS011;75760;31.390;34.904;2024-02-04T06:14:24;10.83;;;5.50;;
85342;SDS011;75760;31.390;34.904;2024-02-04T06:16:49;11.95;;;5.75;;
85342;SDS011;75760;31.390;34.904;2024-02-04T06:19:15;10.43;;;5.70;;
85342;SDS011;75760;31.390;34.904;2024-02-04T06:21:40;12.38;;;6.20;;
85342;SDS011;75760;31.390;34.904;2024-02-04T06:24:06;11.97;;;5.80;;
85342;SDS011;75760;31.390;34.904;2024-02-04T06:26:32;12.40;;;5.63;;
85342;SDS011;75760;31.390;34.904;2024-02-04T06:28:57;12.87;;;5.13;;
85342;SDS011;75760;31.390;34.904;2024-02-04T06:31:23;8.53;;;5.00;;
85342;SDS011;75760;31.390;34.904;2024-02-04T06:33:48;10.43;;;5.07;;
85342;SDS011;75760;31.390;34.904;2024-02-04T06:36:14;11.27;;;5.03;;
85342;SDS011;75760;31.390;34.904;2024-02-04T06:38:40;9.73;;;5.03;;
85342;SDS011;75760;31.390;34.904;2024-02-04T06:41:05;11.33;;;4.63;;
85342;SDS011;75760;31.390;34.904;2024-02-04T06:43:31;13.48;;;5.28;;
85342;SDS011;75760;31.390;34.904;2024-02-04T06:45:57;10.87;;;5.10;;
85342;SDS011;75760;31.390;34.904;2024-02-04T06:48:23;13.60;;;5.35;;
85342;SDS011;75760;31.390;34.904;2024-02-04T06:50:48;17.03;;;5.40;;
85342;SDS011;75760;31.390;34.904;2024-02-04T06:53:14;10.82;;;5.07;;
85342;SDS011;75760;31.390;34.904;2024-02-04T06:55:40;11.57;;;4.57;;
85342;SDS011;75760;31.390;34.904;2024-02-04T06:58:05;10.70;;;4.68;;
85342;SDS011;75760;31.390;34.904;2024-02-04T07:00:31;12.33;;;5.30;;
85342;SDS011;75760;31.390;34.904;2024-02-04T07:02:56;11.88;;;4.47;;
85342;SDS011;75760;31.390;34.904;2024-02-04T07:05:22;12.13;;;4.93;;
85342;SDS011;75760;31.390;34.904;2024-02-04T07:07:48;11.43;;;4.63;;
85342;SDS011;75760;31.390;34.904;2024-02-04T07:10:14;7.93;;;4.55;;
85342;SDS011;75760;31.390;34.904;2024-02-04T07:12:41;18.25;;;5.18;;
85342;SDS011;75760;31.390;34.904;2024-02-04T07:15:07;12.23;;;5.60;;
85342;SDS011;75760;31.390;34.904;2024-02-04T07:17:33;13.00;;;5.40;;
85342;SDS011;75760;31.390;34.904;2024-02-04T07:20:00;15.57;;;4.80;;
85342;SDS011;75760;31.390;34.904;2024-02-04T07:22:28;13.35;;;5.28;;
85342;SDS011;75760;31.390;34.904;2024-02-04T07:24:54;10.70;;;4.03;;
85342;SDS011;75760;31.390;34.904;2024-02-04T07:27:20;9.27;;;4.20;;
85342;SDS011;75760;31.390;34.904;2024-02-04T07:29:45;10.00;;;4.90;;
85342;SDS011;75760;31.390;34.904;2024-02-04T07:32:12;13.17;;;4.70;;
85342;SDS011;75760;31.390;34.904;2024-02-04T07:34:38;11.85;;;5.53;;
85342;SDS011;75760;31.390;34.904;2024-02-04T07:37:04;9.87;;;5.40;;
85342;SDS011;75760;31.390;34.904;2024-02-04T07:39:29;10.57;;;5.03;;
85342;SDS011;75760;31.390;34.904;2024-02-04T07:41:56;11.25;;;4.25;;
85342;SDS011;75760;31.390;34.904;2024-02-04T07:44:25;6.97;;;3.28;;
85342;SDS011;75760;31.390;34.904;2024-02-04T07:46:52;7.43;;;3.73;;
85342;SDS011;75760;31.390;34.904;2024-02-04T07:49:17;8.05;;;3.58;;
85342;SDS011;75760;31.390;34.904;2024-02-04T07:51:43;8.20;;;3.87;;
85342;SDS011;75760;31.390;34.904;2024-02-04T07:54:08;7.80;;;3.80;;
85342;SDS011;75760;31.390;34.904;2024-02-04T07:56:34;8.13;;;3.87;;
85342;SDS011;75760;31.390;34.904;2024-02-04T07:58:59;9.40;;;3.93;;
85342;SDS011;75760;31.390;34.904;2024-02-04T08:01:25;8.02;;;3.67;;
85342;SDS011;75760;31.390;34.904;2024-02-04T08:03:51;9.63;;;4.83;;
85342;SDS011;75760;31.390;34.904;2024-02-04T08:06:16;8.85;;;4.47;;
85342;SDS011;75760;31.390;34.904;2024-02-04T08:08:42;7.67;;;4.67;;
85342;SDS011;75760;31.390;34.904;2024-02-04T08:11:09;9.15;;;4.45;;
85342;SDS011;75760;31.390;34.904;2024-02-04T08:13:35;10.13;;;4.33;;
85342;SDS011;75760;31.390;34.904;2024-02-04T08:16:00;13.45;;;5.07;;
85342;SDS011;75760;31.390;34.904;2024-02-04T08:18:26;8.27;;;4.90;;
85342;SDS011;75760;31.390;34.904;2024-02-04T08:20:52;12.25;;;5.10;;
85342;SDS011;75760;31.390;34.904;2024-02-04T08:23:18;9.48;;;4.78;;
85342;SDS011;75760;31.390;34.904;2024-02-04T08:25:44;11.47;;;5.00;;
85342;SDS011;75760;31.390;34.904;2024-02-04T08:28:10;12.00;;;5.07;;
85342;SDS011;75760;31.390;34.904;2024-02-04T08:30:35;11.07;;;4.70;;
85342;SDS011;75760;31.390;34.904;2024-02-04T08:33:01;9.37;;;5.20;;
85342;SDS011;75760;31.390;34.904;2024-02-04T08:35:26;12.97;;;6.40;;
85342;SDS011;75760;31.390;34.904;2024-02-04T08:37:52;15.68;;;6.53;;
85342;SDS011;75760;31.390;34.904;2024-02-04T08:40:18;10.40;;;5.10;;
85342;SDS011;75760;31.390;34.904;2024-02-04T08:42:43;9.05;;;4.30;;
85342;SDS011;75760;31.390;34.904;2024-02-04T08:45:09;11.27;;;4.70;;
85342;SDS011;75760;31.390;34.904;2024-02-04T08:47:35;11.02;;;4.40;;
85342;SDS011;75760;31.390;34.904;2024-02-04T08:50:01;9.30;;;3.87;;
85342;SDS011;75760;31.390;34.904;2024-02-04T08:52:28;11.05;;;4.35;;
85342;SDS011;75760;31.390;34.904;2024-02-04T08:54:53;8.15;;;4.28;;
85342;SDS011;75760;31.390;34.904;2024-02-04T08:57:19;8.67;;;4.13;;
85342;SDS011;75760;31.390;34.904;2024-02-04T08:59:44;8.83;;;4.03;;
85342;SDS011;75760;31.390;34.904;2024-02-04T09:02:10;7.65;;;3.75;;
85342;SDS011;75760;31.390;34.904;2024-02-04T09:04:36;7.27;;;4.10;;
85342;SDS011;75760;31.390;34.904;2024-02-04T09:07:06;8.07;;;3.72;;
85342;SDS011;75760;31.390;34.904;2024-02-04T09:09:32;7.15;;;4.05;;
85342;SDS011;75760;31.390;34.904;2024-02-04T09:11:58;9.53;;;3.83;;
85342;SDS011;75760;31.390;34.904;2024-02-04T09:14:23;7.47;;;4.13;;
85342;SDS011;75760;31.390;34.904;2024-02-04T09:16:49;7.00;;;3.97;;
85342;SDS011;75760;31.390;34.904;2024-02-04T09:19:14;7.93;;;4.07;;
85342;SDS011;75760;31.390;34.904;2024-02-04T09:21:40;8.70;;;3.60;;
85342;SDS011;75760;31.390;34.904;2024-02-04T09:24:07;7.03;;;3.83;;
85342;SDS011;75760;31.390;34.904;2024-02-04T09:26:32;9.50;;;3.80;;
85342;SDS011;75760;31.390;34.904;2024-02-04T09:28:58;7.63;;;3.33;;
85342;SDS011;75760;31.390;34.904;2024-02-04T09:31:23;6.13;;;3.10;;
85342;SDS011;75760;31.390;34.904;2024-02-04T09:33:49;8.13;;;3.35;;
85342;SDS011;75760;31.390;34.904;2024-02-04T09:36:15;9.43;;;4.27;;
85342;SDS011;75760;31.390;34.904;2024-02-04T09:38:40;6.90;;;3.20;;
85342;SDS011;75760;31.390;34.904;2024-02-04T09:41:06;9.60;;;3.33;;
85342;SDS011;75760;31.390;34.904;2024-02-04T09:43:32;5.53;;;2.70;;
85342;SDS011;75760;31.390;34.904;2024-02-04T09:46:00;7.60;;;2.73;;
85342;SDS011;75760;31.390;34.904;2024-02-04T09:48:26;5.60;;;3.10;;
85342;SDS011;75760;31.390;34.904;2024-02-04T09:50:56;4.10;;;2.65;;
85342;SDS011;75760;31.390;34.904;2024-02-04T09:53:25;7.00;;;3.80;;
85342;SDS011;75760;31.390;34.904;2024-02-04T09:56:03;7.47;;;2.80;;
85342;SDS011;75760;31.390;34.904;2024-02-04T09:58:31;5.43;;;2.90;;
85342;SDS011;75760;31.390;34.904;2024-02-04T10:00:57;9.00;;;3.53;;
85342;SDS011;75760;31.390;34.904;2024-02-04T10:03:24;5.07;;;2.83;;
85342;SDS011;75760;31.390;34.904;2024-02-04T10:05:50;4.75;;;2.95;;
85342;SDS011;75760;31.390;34.904;2024-02-04T10:08:15;5.53;;;2.80;;
85342;SDS011;75760;31.390;34.904;2024-02-04T10:10:41;5.13;;;2.80;;
85342;SDS011;75760;31.390;34.904;2024-02-04T10:13:10;7.03;;;2.90;;
85342;SDS011;75760;31.390;34.904;2024-02-04T10:15:36;7.82;;;3.45;;
85342;SDS011;75760;31.390;34.904;2024-02-04T10:18:08;6.60;;;3.05;;
85342;SDS011;75760;31.390;34.904;2024-02-04T10:20:34;10.15;;;2.80;;
85342;SDS011;75760;31.390;34.904;2024-02-04T10:23:00;8.30;;;3.17;;
85342;SDS011;75760;31.390;34.904;2024-02-04T10:25:25;6.70;;;3.08;;
85342;SDS011;75760;31.390;34.904;2024-02-04T10:27:52;8.43;;;3.10;;
85342;SDS011;75760;31.390;34.904;2024-02-04T10:30:21;8.33;;;3.40;;
85342;SDS011;75760;31.390;34.904;2024-02-04T10:32:50;6.53;;;2.83;;
85342;SDS011;75760;31.390;34.904;2024-02-04T10:35:16;8.50;;;2.67;;
85342;SDS011;75760;31.390;34.904;2024-02-04T10:37:44;7.47;;;3.03;;
85342;SDS011;75760;31.390;34.904;2024-02-04T10:40:10;10.38;;;3.45;;
85342;SDS011;75760;31.390;34.904;2024-02-04T10:42:36;8.27;;;3.07;;
85342;SDS011;75760;31.390;34.904;2024-02-04T10:45:07;8.27;;;3.08;;
85342;SDS011;75760;31.390;34.904;2024-02-04T10:47:34;9.68;;;2.80;;
85342;SDS011;75760;31.390;34.904;2024-02-04T10:50:05;10.43;;;3.00;;
85342;SDS011;75760;31.390;34.904;2024-02-04T10:52:35;5.43;;;2.30;;
85342;SDS011;75760;31.390;34.904;2024-02-04T10:55:07;9.05;;;2.90;;
85342;SDS011;75760;31.390;34.904;2024-02-04T10:57:36;6.88;;;2.80;;
85342;SDS011;75760;31.390;34.904;2024-02-04T11:00:03;6.43;;;2.83;;
85342;SDS011;75760;31.390;34.904;2024-02-04T11:02:36;6.85;;;2.80;;
85342;SDS011;75760;31.390;34.904;2024-02-04T11:05:04;4.93;;;2.67;;
85342;SDS011;75760;31.390;34.904;2024-02-04T11:07:33;3.85;;;2.70;;
85342;SDS011;75760;31.390;34.904;2024-02-04T11:10:02;6.20;;;3.58;;
85342;SDS011;75760;31.390;34.904;2024-02-04T11:12:29;5.25;;;3.00;;
85342;SDS011;75760;31.390;34.904;2024-02-04T11:14:58;6.93;;;2.92;;
85342;SDS011;75760;31.390;34.904;2024-02-04T11:17:37;5.97;;;2.90;;
85342;SDS011;75760;31.390;34.904;2024-02-04T11:23:25;5.05;;;2.60;;
85342;SDS011;75760;31.390;34.904;2024-02-04T11:26:33;7.55;;;3.10;;
85342;SDS011;75760;31.390;34.904;2024-02-04T11:29:00;5.07;;;3.17;;
85342;SDS011;75760;31.390;34.904;2024-02-04T11:31:28;6.33;;;3.23;;
85342;SDS011;75760;31.390;34.904;2024-02-04T11:33:55;7.57;;;3.05;;
85342;SDS011;75760;31.390;34.904;2024-02-04T11:36:24;4.57;;;2.60;;
85342;SDS011;75760;31.390;34.904;2024-02-04T11:38:50;7.05;;;2.60;;
85342;SDS011;75760;31.390;34.904;2024-02-04T11:41:22;5.20;;;3.23;;
85342;SDS011;75760;31.390;34.904;2024-02-04T11:43:51;7.53;;;3.10;;
85342;SDS011;75760;31.390;34.904;2024-02-04T11:46:19;5.80;;;3.55;;
85342;SDS011;75760;31.390;34.904;2024-02-04T11:48:50;5.27;;;2.93;;
85342;SDS011;75760;31.390;34.904;2024-02-04T11:51:18;6.78;;;3.53;;
85342;SDS011;75760;31.390;34.904;2024-02-04T11:53:49;6.68;;;2.25;;
85342;SDS011;75760;31.390;34.904;2024-02-04T11:56:16;5.15;;;2.10;;
85342;SDS011;75760;31.390;34.904;2024-02-04T11:58:43;6.28;;;2.60;;
85342;SDS011;75760;31.390;34.904;2024-02-04T12:01:10;7.47;;;2.80;;
85342;SDS011;75760;31.390;34.904;2024-02-04T12:03:36;6.22;;;2.50;;
85342;SDS011;75760;31.390;34.904;2024-02-04T12:06:02;8.90;;;3.10;;
85342;SDS011;75760;31.390;34.904;2024-02-04T12:08:30;8.55;;;3.88;;
85342;SDS011;75760;31.390;34.904;2024-02-04T12:10:57;6.60;;;3.50;;
85342;SDS011;75760;31.390;34.904;2024-02-04T12:13:25;9.63;;;3.60;;
85342;SDS011;75760;31.390;34.904;2024-02-04T12:15:53;8.15;;;4.00;;
85342;SDS011;75760;31.390;34.904;2024-02-04T12:18:19;8.30;;;5.25;;
85342;SDS011;75760;31.390;34.904;2024-02-04T12:20:48;10.57;;;4.55;;
85342;SDS011;75760;31.390;34.904;2024-02-04T12:23:14;9.73;;;3.80;;
85342;SDS011;75760;31.390;34.904;2024-02-04T12:25:40;7.70;;;4.13;;
85342;SDS011;75760;31.390;34.904;2024-02-04T12:28:06;7.72;;;4.20;;
85342;SDS011;75760;31.390;34.904;2024-02-04T12:30:32;9.70;;;5.23;;
85342;SDS011;75760;31.390;34.904;2024-02-04T12:33:02;11.63;;;4.60;;
85342;SDS011;75760;31.390;34.904;2024-02-04T12:35:29;8.38;;;4.85;;
85342;SDS011;75760;31.390;34.904;2024-02-04T12:37:55;12.20;;;4.87;;
85342;SDS011;75760;31.390;34.904;2024-02-04T12:40:22;17.25;;;4.97;;
85342;SDS011;75760;31.390;34.904;2024-02-04T12:42:53;12.18;;;4.50;;
85342;SDS011;75760;31.390;34.904;2024-02-04T12:45:23;6.63;;;3.17;;
85342;SDS011;75760;31.390;34.904;2024-02-04T12:47:50;6.40;;;3.55;;
85342;SDS011;75760;31.390;34.904;2024-02-04T12:50:20;5.57;;;2.37;;
85342;SDS011;75760;31.390;34.904;2024-02-04T12:52:46;11.70;;;2.08;;
85342;SDS011;75760;31.390;34.904;2024-02-04T12:55:20;9.23;;;2.45;;
85342;SDS011;75760;31.390;34.904;2024-02-04T12:57:47;4.57;;;2.10;;
85342;SDS011;75760;31.390;34.904;2024-02-04T13:00:14;14.45;;;2.58;;
85342;SDS011;75760;31.390;34.904;2024-02-04T13:02:43;4.23;;;1.90;;
85342;SDS011;75760;31.390;34.904;2024-02-04T13:05:08;6.80;;;1.85;;
85342;SDS011;75760;31.390;34.904;2024-02-04T13:07:34;6.63;;;2.33;;
85342;SDS011;75760;31.390;34.904;2024-02-04T13:10:00;5.35;;;2.25;;
85342;SDS011;75760;31.390;34.904;2024-02-04T13:12:25;5.57;;;2.27;;
85342;SDS011;75760;31.390;34.904;2024-02-04T13:14:51;8.40;;;2.43;;
85342;SDS011;75760;31.390;34.904;2024-02-04T13:17:16;4.50;;;2.50;;
85342;SDS011;75760;31.390;34.904;2024-02-04T13:19:42;4.73;;;2.60;;
85342;SDS011;75760;31.390;34.904;2024-02-04T13:22:09;9.10;;;2.70;;
85342;SDS011;75760;31.390;34.904;2024-02-04T13:24:35;8.25;;;2.78;;
85342;SDS011;75760;31.390;34.904;2024-02-04T13:27:00;7.67;;;2.53;;
85342;SDS011;75760;31.390;34.904;2024-02-04T13:29:28;5.30;;;2.92;;
85342;SDS011;75760;31.390;34.904;2024-02-04T13:31:53;6.47;;;3.07;;
85342;SDS011;75760;31.390;34.904;2024-02-04T13:34:19;7.95;;;2.97;;
85342;SDS011;75760;31.390;34.904;2024-02-04T13:36:45;9.60;;;3.28;;
85342;SDS011;75760;31.390;34.904;2024-02-04T13:39:11;7.10;;;3.43;;
85342;SDS011;75760;31.390;34.904;2024-02-04T13:41:40;7.78;;;3.80;;
85342;SDS011;75760;31.390;34.904;2024-02-04T13:44:06;8.43;;;3.42;;
85342;SDS011;75760;31.390;34.904;2024-02-04T13:46:32;9.20;;;3.30;;
85342;SDS011;75760;31.390;34.904;2024-02-04T13:48:58;8.55;;;3.33;;
85342;SDS011;75760;31.390;34.904;2024-02-04T13:51:24;8.65;;;3.30;;
85342;SDS011;75760;31.390;34.904;2024-02-04T13:53:49;7.30;;;3.13;;
85342;SDS011;75760;31.390;34.904;2024-02-04T13:56:15;9.87;;;3.73;;
85342;SDS011;75760;31.390;34.904;2024-02-04T13:58:44;7.57;;;3.70;;
85342;SDS011;75760;31.390;34.904;2024-02-04T14:01:10;10.25;;;4.82;;
85342;SDS011;75760;31.390;34.904;2024-02-04T14:03:35;9.95;;;5.03;;
85342;SDS011;75760;31.390;34.904;2024-02-04T14:06:01;11.47;;;5.43;;
85342;SDS011;75760;31.390;34.904;2024-02-04T14:08:29;11.68;;;5.90;;
85342;SDS011;75760;31.390;34.904;2024-02-04T14:10:55;15.35;;;5.93;;
85342;SDS011;75760;31.390;34.904;2024-02-04T14:13:20;10.57;;;5.60;;
85342;SDS011;75760;31.390;34.904;2024-02-04T14:15:46;11.65;;;6.18;;
85342;SDS011;75760;31.390;34.904;2024-02-04T14:18:12;11.90;;;5.83;;
85342;SDS011;75760;31.390;34.904;2024-02-04T14:20:37;10.90;;;5.93;;
85342;SDS011;75760;31.390;34.904;2024-02-04T14:23:03;9.57;;;5.70;;
85342;SDS011;75760;31.390;34.904;2024-02-04T14:25:28;15.97;;;5.60;;
85342;SDS011;75760;31.390;34.904;2024-02-04T14:27:54;10.73;;;5.50;;
85342;SDS011;75760;31.390;34.904;2024-02-04T14:30:20;9.00;;;4.90;;
85342;SDS011;75760;31.390;34.904;2024-02-04T14:32:47;12.95;;;5.47;;